sensor_id;sensor_type;location;lat;lon;timestamp;P1;durP1;ratioP1;P2;durP2;ratioP2
59193;SDS011;44967;48.598;15.650;2023-11-19T00:00:43;12.73;;;8.43;;
59193;SDS011;44967;48.598;15.650;2023-11-19T00:03:08;12.77;;;9.00;;
59193;SDS011;44967;48.598;15.650;2023-11-19T00:05:36;13.30;;;7.97;;
59193;SDS011;44967;48.598;15.650;2023-11-19T00:08:02;11.02;;;8.07;;
59193;SDS011;44967;48.598;15.650;2023-11-19T00:10:28;16.77;;;8.88;;
59193;SDS011;44967;48.598;15.650;2023-11-19T00:12:54;12.23;;;7.32;;
59193;SDS011;44967;48.598;15.650;2023-11-19T00:15:19;12.95;;;9.18;;
59193;SDS011;44967;48.598;15.650;2023-11-19T00:17:46;13.38;;;7.88;;
59193;SDS011;44967;48.598;15.650;2023-11-19T00:20:19;11.25;;;8.25;;
59193;SDS011;44967;48.598;15.650;2023-11-19T00:22:47;14.50;;;9.68;;
59193;SDS011;44967;48.598;15.650;2023-11-19T00:25:13;16.38;;;8.48;;
59193;SDS011;44967;48.598;15.650;2023-11-19T00:27:39;14.10;;;8.43;;
59193;SDS011;44967;48.598;15.650;2023-11-19T00:30:05;14.32;;;8.52;;
59193;SDS011;44967;48.598;15.650;2023-11-19T00:32:32;12.98;;;8.10;;
59193;SDS011;44967;48.598;15.650;2023-11-19T00:34:58;12.88;;;8.18;;
59193;SDS011;44967;48.598;15.650;2023-11-19T00:37:24;13.38;;;8.90;;
59193;SDS011;44967;48.598;15.650;2023-11-19T00:39:50;11.20;;;7.22;;
59193;SDS011;44967;48.598;15.650;2023-11-19T00:42:17;12.57;;;7.40;;
59193;SDS011;44967;48.598;15.650;2023-11-19T00:44:43;11.57;;;7.40;;
59193;SDS011;44967;48.598;15.650;2023-11-19T00:47:08;10.20;;;7.00;;
59193;SDS011;44967;48.598;15.650;2023-11-19T00:49:34;9.90;;;5.97;;
59193;SDS011;44967;48.598;15.650;2023-11-19T00:52:00;11.98;;;6.05;;
59193;SDS011;44967;48.598;15.650;2023-11-19T00:54:27;9.43;;;5.53;;
59193;SDS011;44967;48.598;15.650;2023-11-19T00:56:53;8.98;;;5.30;;
59193;SDS011;44967;48.598;15.650;2023-11-19T00:59:19;11.93;;;6.72;;
59193;SDS011;44967;48.598;15.650;2023-11-19T01:01:45;9.90;;;6.70;;
59193;SDS011;44967;48.598;15.650;2023-11-19T01:04:10;10.57;;;6.90;;
59193;SDS011;44967;48.598;15.650;2023-11-19T01:06:36;10.57;;;7.22;;
59193;SDS011;44967;48.598;15.650;2023-11-19T01:09:02;10.52;;;6.88;;
59193;SDS011;44967;48.598;15.650;2023-11-19T01:11:28;11.30;;;6.95;;
59193;SDS011;44967;48.598;15.650;2023-11-19T01:13:53;11.45;;;7.72;;
59193;SDS011;44967;48.598;15.650;2023-11-19T01:16:19;13.18;;;7.40;;
59193;SDS011;44967;48.598;15.650;2023-11-19T01:18:46;11.32;;;7.53;;
59193;SDS011;44967;48.598;15.650;2023-11-19T01:21:12;13.10;;;7.10;;
59193;SDS011;44967;48.598;15.650;2023-11-19T01:23:40;13.35;;;7.78;;
59193;SDS011;44967;48.598;15.650;2023-11-19T01:26:11;15.55;;;7.10;;
59193;SDS011;44967;48.598;15.650;2023-11-19T01:28:39;13.10;;;8.55;;
59193;SDS011;44967;48.598;15.650;2023-11-19T01:31:08;11.80;;;7.70;;
59193;SDS011;44967;48.598;15.650;2023-11-19T01:33:35;11.02;;;7.18;;
59193;SDS011;44967;48.598;15.650;2023-11-19T01:36:02;13.20;;;8.48;;
59193;SDS011;44967;48.598;15.650;2023-11-19T01:38:28;10.60;;;7.40;;
59193;SDS011;44967;48.598;15.650;2023-11-19T01:40:56;16.38;;;9.00;;
59193;SDS011;44967;48.598;15.650;2023-11-19T01:43:32;11.38;;;8.45;;
59193;SDS011;44967;48.598;15.650;2023-11-19T01:46:02;14.15;;;9.27;;
59193;SDS011;44967;48.598;15.650;2023-11-19T01:48:29;10.90;;;8.40;;
59193;SDS011;44967;48.598;15.650;2023-11-19T01:50:56;10.23;;;7.63;;
59193;SDS011;44967;48.598;15.650;2023-11-19T01:53:22;11.48;;;7.63;;
59193;SDS011;44967;48.598;15.650;2023-11-19T01:55:49;13.30;;;7.75;;
59193;SDS011;44967;48.598;15.650;2023-11-19T01:58:15;12.75;;;7.82;;
59193;SDS011;44967;48.598;15.650;2023-11-19T02:00:42;14.20;;;7.97;;
59193;SDS011;44967;48.598;15.650;2023-11-19T02:03:09;12.13;;;7.68;;
59193;SDS011;44967;48.598;15.650;2023-11-19T02:05:37;11.27;;;7.60;;
59193;SDS011;44967;48.598;15.650;2023-11-19T02:08:04;9.85;;;7.55;;
59193;SDS011;44967;48.598;15.650;2023-11-19T02:10:30;10.05;;;6.95;;
59193;SDS011;44967;48.598;15.650;2023-11-19T02:12:57;9.95;;;7.72;;
59193;SDS011;44967;48.598;15.650;2023-11-19T02:15:24;10.50;;;7.50;;
59193;SDS011;44967;48.598;15.650;2023-11-19T02:17:52;11.40;;;7.55;;
59193;SDS011;44967;48.598;15.650;2023-11-19T02:20:18;10.60;;;7.45;;
59193;SDS011;44967;48.598;15.650;2023-11-19T02:22:46;10.93;;;7.45;;
59193;SDS011;44967;48.598;15.650;2023-11-19T02:25:17;9.52;;;6.60;;
59193;SDS011;44967;48.598;15.650;2023-11-19T02:27:53;11.15;;;6.93;;
59193;SDS011;44967;48.598;15.650;2023-11-19T02:30:22;8.82;;;6.10;;
59193;SDS011;44967;48.598;15.650;2023-11-19T02:32:56;9.73;;;6.43;;
59193;SDS011;44967;48.598;15.650;2023-11-19T02:35:26;9.50;;;6.72;;
59193;SDS011;44967;48.598;15.650;2023-11-19T02:37:56;11.90;;;7.13;;
59193;SDS011;44967;48.598;15.650;2023-11-19T02:40:22;9.63;;;6.63;;
59193;SDS011;44967;48.598;15.650;2023-11-19T02:42:51;12.93;;;7.32;;
59193;SDS011;44967;48.598;15.650;2023-11-19T02:45:24;11.98;;;7.65;;
59193;SDS011;44967;48.598;15.650;2023-11-19T02:47:51;12.15;;;7.93;;
59193;SDS011;44967;48.598;15.650;2023-11-19T02:50:18;12.77;;;8.43;;
59193;SDS011;44967;48.598;15.650;2023-11-19T02:52:51;19.10;;;11.10;;
59193;SDS011;44967;48.598;15.650;2023-11-19T02:55:18;14.85;;;8.00;;
59193;SDS011;44967;48.598;15.650;2023-11-19T02:57:44;10.20;;;6.30;;
59193;SDS011;44967;48.598;15.650;2023-11-19T03:00:15;8.65;;;5.13;;
59193;SDS011;44967;48.598;15.650;2023-11-19T03:02:42;7.03;;;5.13;;
59193;SDS011;44967;48.598;15.650;2023-11-19T03:05:16;11.27;;;7.47;;
59193;SDS011;44967;48.598;15.650;2023-11-19T03:07:42;13.13;;;8.65;;
59193;SDS011;44967;48.598;15.650;2023-11-19T03:10:11;14.27;;;9.15;;
59193;SDS011;44967;48.598;15.650;2023-11-19T03:12:41;12.27;;;7.40;;
59193;SDS011;44967;48.598;15.650;2023-11-19T03:15:07;10.18;;;7.10;;
59193;SDS011;44967;48.598;15.650;2023-11-19T03:17:40;9.35;;;7.28;;
59193;SDS011;44967;48.598;15.650;2023-11-19T03:20:09;8.85;;;6.55;;
59193;SDS011;44967;48.598;15.650;2023-11-19T03:22:46;8.60;;;5.85;;
59193;SDS011;44967;48.598;15.650;2023-11-19T03:25:12;10.25;;;6.18;;
59193;SDS011;44967;48.598;15.650;2023-11-19T03:27:38;8.23;;;5.88;;
59193;SDS011;44967;48.598;15.650;2023-11-19T03:30:11;11.02;;;7.07;;
59193;SDS011;44967;48.598;15.650;2023-11-19T03:32:37;12.48;;;6.85;;
59193;SDS011;44967;48.598;15.650;2023-11-19T03:35:04;9.48;;;6.63;;
59193;SDS011;44967;48.598;15.650;2023-11-19T03:37:32;7.50;;;6.22;;
59193;SDS011;44967;48.598;15.650;2023-11-19T03:39:58;11.23;;;7.18;;
59193;SDS011;44967;48.598;15.650;2023-11-19T03:42:25;12.63;;;6.43;;
59193;SDS011;44967;48.598;15.650;2023-11-19T03:44:52;11.32;;;6.25;;
59193;SDS011;44967;48.598;15.650;2023-11-19T03:47:19;12.10;;;7.32;;
59193;SDS011;44967;48.598;15.650;2023-11-19T03:49:48;10.65;;;7.18;;
59193;SDS011;44967;48.598;15.650;2023-11-19T03:52:15;9.10;;;6.63;;
59193;SDS011;44967;48.598;15.650;2023-11-19T03:54:42;11.73;;;7.50;;
59193;SDS011;44967;48.598;15.650;2023-11-19T03:57:07;11.27;;;6.90;;
59193;SDS011;44967;48.598;15.650;2023-11-19T03:59:36;11.60;;;7.90;;
59193;SDS011;44967;48.598;15.650;2023-11-19T04:02:02;11.10;;;7.45;;
59193;SDS011;44967;48.598;15.650;2023-11-19T04:04:28;12.25;;;7.30;;
59193;SDS011;44967;48.598;15.650;2023-11-19T04:06:57;9.90;;;7.13;;
59193;SDS011;44967;48.598;15.650;2023-11-19T04:09:23;11.45;;;6.65;;
59193;SDS011;44967;48.598;15.650;2023-11-19T04:11:49;12.93;;;7.43;;
59193;SDS011;44967;48.598;15.650;2023-11-19T04:14:14;9.98;;;7.65;;
59193;SDS011;44967;48.598;15.650;2023-11-19T04:16:43;11.02;;;6.65;;
59193;SDS011;44967;48.598;15.650;2023-11-19T04:19:11;10.88;;;7.05;;
59193;SDS011;44967;48.598;15.650;2023-11-19T04:21:37;11.27;;;7.00;;
59193;SDS011;44967;48.598;15.650;2023-11-19T04:24:06;9.02;;;6.93;;
59193;SDS011;44967;48.598;15.650;2023-11-19T04:26:33;11.75;;;8.20;;
59193;SDS011;44967;48.598;15.650;2023-11-19T04:28:59;10.43;;;7.90;;
59193;SDS011;44967;48.598;15.650;2023-11-19T04:31:29;11.05;;;7.70;;
59193;SDS011;44967;48.598;15.650;2023-11-19T04:33:58;10.65;;;7.60;;
59193;SDS011;44967;48.598;15.650;2023-11-19T04:36:26;11.82;;;6.85;;
59193;SDS011;44967;48.598;15.650;2023-11-19T04:38:51;12.15;;;7.53;;
59193;SDS011;44967;48.598;15.650;2023-11-19T04:41:17;9.80;;;7.00;;
59193;SDS011;44967;48.598;15.650;2023-11-19T04:43:43;9.40;;;6.55;;
59193;SDS011;44967;48.598;15.650;2023-11-19T04:46:12;8.25;;;6.50;;
59193;SDS011;44967;48.598;15.650;2023-11-19T04:48:37;10.93;;;7.40;;
59193;SDS011;44967;48.598;15.650;2023-11-19T04:51:06;11.02;;;7.07;;
59193;SDS011;44967;48.598;15.650;2023-11-19T04:53:31;9.88;;;6.32;;
59193;SDS011;44967;48.598;15.650;2023-11-19T04:55:58;10.32;;;7.43;;
59193;SDS011;44967;48.598;15.650;2023-11-19T04:58:24;9.70;;;6.97;;
59193;SDS011;44967;48.598;15.650;2023-11-19T05:00:50;12.05;;;8.13;;
59193;SDS011;44967;48.598;15.650;2023-11-19T05:03:16;13.70;;;8.77;;
59193;SDS011;44967;48.598;15.650;2023-11-19T05:05:43;11.50;;;7.65;;
59193;SDS011;44967;48.598;15.650;2023-11-19T05:08:09;11.75;;;7.82;;
59193;SDS011;44967;48.598;15.650;2023-11-19T05:10:34;10.30;;;7.72;;
59193;SDS011;44967;48.598;15.650;2023-11-19T05:13:02;12.10;;;7.53;;
59193;SDS011;44967;48.598;15.650;2023-11-19T05:15:27;8.95;;;7.03;;
59193;SDS011;44967;48.598;15.650;2023-11-19T05:17:53;11.05;;;8.15;;
59193;SDS011;44967;48.598;15.650;2023-11-19T05:20:18;13.45;;;9.68;;
59193;SDS011;44967;48.598;15.650;2023-11-19T05:22:44;18.30;;;11.38;;
59193;SDS011;44967;48.598;15.650;2023-11-19T05:25:11;18.95;;;10.98;;
59193;SDS011;44967;48.598;15.650;2023-11-19T05:27:37;12.70;;;8.50;;
59193;SDS011;44967;48.598;15.650;2023-11-19T05:30:04;13.10;;;8.45;;
59193;SDS011;44967;48.598;15.650;2023-11-19T05:32:36;10.00;;;7.07;;
59193;SDS011;44967;48.598;15.650;2023-11-19T05:35:02;11.45;;;8.00;;
59193;SDS011;44967;48.598;15.650;2023-11-19T05:37:28;12.35;;;8.07;;
59193;SDS011;44967;48.598;15.650;2023-11-19T05:39:54;11.52;;;7.95;;
59193;SDS011;44967;48.598;15.650;2023-11-19T05:42:20;11.48;;;7.60;;
59193;SDS011;44967;48.598;15.650;2023-11-19T05:44:45;10.73;;;7.10;;
59193;SDS011;44967;48.598;15.650;2023-11-19T05:47:11;11.27;;;8.38;;
59193;SDS011;44967;48.598;15.650;2023-11-19T05:49:37;11.27;;;8.02;;
59193;SDS011;44967;48.598;15.650;2023-11-19T05:52:03;13.43;;;8.60;;
59193;SDS011;44967;48.598;15.650;2023-11-19T05:54:33;12.68;;;7.93;;
59193;SDS011;44967;48.598;15.650;2023-11-19T05:57:04;12.73;;;8.93;;
59193;SDS011;44967;48.598;15.650;2023-11-19T05:59:30;10.57;;;7.40;;
59193;SDS011;44967;48.598;15.650;2023-11-19T06:01:57;10.57;;;7.53;;
59193;SDS011;44967;48.598;15.650;2023-11-19T06:04:23;13.23;;;8.90;;
59193;SDS011;44967;48.598;15.650;2023-11-19T06:06:48;11.57;;;7.78;;
59193;SDS011;44967;48.598;15.650;2023-11-19T06:09:14;11.40;;;7.47;;
59193;SDS011;44967;48.598;15.650;2023-11-19T06:11:40;12.68;;;8.48;;
59193;SDS011;44967;48.598;15.650;2023-11-19T06:14:06;12.88;;;8.52;;
59193;SDS011;44967;48.598;15.650;2023-11-19T06:16:32;11.07;;;7.20;;
59193;SDS011;44967;48.598;15.650;2023-11-19T06:18:58;12.63;;;8.93;;
59193;SDS011;44967;48.598;15.650;2023-11-19T06:21:24;13.30;;;8.40;;
59193;SDS011;44967;48.598;15.650;2023-11-19T06:23:50;14.18;;;8.40;;
59193;SDS011;44967;48.598;15.650;2023-11-19T06:26:17;12.30;;;8.25;;
59193;SDS011;44967;48.598;15.650;2023-11-19T06:28:43;23.23;;;13.57;;
59193;SDS011;44967;48.598;15.650;2023-11-19T06:31:10;14.73;;;9.45;;
59193;SDS011;44967;48.598;15.650;2023-11-19T06:33:35;13.70;;;8.75;;
59193;SDS011;44967;48.598;15.650;2023-11-19T06:36:01;12.52;;;8.63;;
59193;SDS011;44967;48.598;15.650;2023-11-19T06:38:27;14.05;;;9.15;;
59193;SDS011;44967;48.598;15.650;2023-11-19T06:40:52;14.35;;;10.07;;
59193;SDS011;44967;48.598;15.650;2023-11-19T06:43:18;14.40;;;9.63;;
59193;SDS011;44967;48.598;15.650;2023-11-19T06:45:44;15.02;;;9.60;;
59193;SDS011;44967;48.598;15.650;2023-11-19T06:48:10;13.65;;;8.35;;
59193;SDS011;44967;48.598;15.650;2023-11-19T06:50:36;14.85;;;9.30;;
59193;SDS011;44967;48.598;15.650;2023-11-19T06:53:02;15.82;;;8.93;;
59193;SDS011;44967;48.598;15.650;2023-11-19T06:55:27;14.20;;;9.48;;
59193;SDS011;44967;48.598;15.650;2023-11-19T06:57:53;17.92;;;11.32;;
59193;SDS011;44967;48.598;15.650;2023-11-19T07:00:19;18.33;;;10.30;;
59193;SDS011;44967;48.598;15.650;2023-11-19T07:02:45;16.80;;;9.38;;
59193;SDS011;44967;48.598;15.650;2023-11-19T07:05:11;13.20;;;8.73;;
59193;SDS011;44967;48.598;15.650;2023-11-19T07:07:38;13.70;;;8.75;;
59193;SDS011;44967;48.598;15.650;2023-11-19T07:10:06;12.65;;;8.40;;
59193;SDS011;44967;48.598;15.650;2023-11-19T07:12:34;13.02;;;7.88;;
59193;SDS011;44967;48.598;15.650;2023-11-19T07:15:01;13.77;;;8.68;;
59193;SDS011;44967;48.598;15.650;2023-11-19T07:17:29;13.43;;;8.25;;
59193;SDS011;44967;48.598;15.650;2023-11-19T07:19:55;13.68;;;8.25;;
59193;SDS011;44967;48.598;15.650;2023-11-19T07:22:24;12.65;;;8.35;;
59193;SDS011;44967;48.598;15.650;2023-11-19T07:24:50;13.02;;;9.32;;
59193;SDS011;44967;48.598;15.650;2023-11-19T07:27:16;11.90;;;7.57;;
59193;SDS011;44967;48.598;15.650;2023-11-19T07:29:43;12.13;;;8.07;;
59193;SDS011;44967;48.598;15.650;2023-11-19T07:32:10;10.10;;;6.97;;
59193;SDS011;44967;48.598;15.650;2023-11-19T07:34:37;14.13;;;8.40;;
59193;SDS011;44967;48.598;15.650;2023-11-19T07:37:04;98.00;;;46.55;;
59193;SDS011;44967;48.598;15.650;2023-11-19T07:39:29;49.58;;;29.85;;
59193;SDS011;44967;48.598;15.650;2023-11-19T07:41:56;15.23;;;10.07;;
59193;SDS011;44967;48.598;15.650;2023-11-19T07:44:21;31.15;;;18.13;;
59193;SDS011;44967;48.598;15.650;2023-11-19T07:46:47;47.80;;;24.95;;
59193;SDS011;44967;48.598;15.650;2023-11-19T07:49:13;28.58;;;16.83;;
59193;SDS011;44967;48.598;15.650;2023-11-19T07:51:39;38.70;;;23.85;;
59193;SDS011;44967;48.598;15.650;2023-11-19T07:54:05;38.95;;;25.30;;
59193;SDS011;44967;48.598;15.650;2023-11-19T07:56:32;36.75;;;23.33;;
59193;SDS011;44967;48.598;15.650;2023-11-19T07:59:01;17.95;;;11.95;;
59193;SDS011;44967;48.598;15.650;2023-11-19T08:01:29;42.95;;;27.42;;
59193;SDS011;44967;48.598;15.650;2023-11-19T08:03:55;31.48;;;22.73;;
59193;SDS011;44967;48.598;15.650;2023-11-19T08:06:21;20.50;;;15.57;;
59193;SDS011;44967;48.598;15.650;2023-11-19T08:08:47;14.27;;;10.27;;
59193;SDS011;44967;48.598;15.650;2023-11-19T08:11:13;13.93;;;8.82;;
59193;SDS011;44967;48.598;15.650;2023-11-19T08:13:40;13.27;;;8.27;;
59193;SDS011;44967;48.598;15.650;2023-11-19T08:16:06;12.18;;;8.52;;
59193;SDS011;44967;48.598;15.650;2023-11-19T08:18:32;12.68;;;8.18;;
59193;SDS011;44967;48.598;15.650;2023-11-19T08:20:58;16.08;;;8.52;;
59193;SDS011;44967;48.598;15.650;2023-11-19T08:23:26;12.20;;;8.63;;
59193;SDS011;44967;48.598;15.650;2023-11-19T08:25:53;11.52;;;8.00;;
59193;SDS011;44967;48.598;15.650;2023-11-19T08:28:19;10.27;;;6.70;;
59193;SDS011;44967;48.598;15.650;2023-11-19T08:30:45;11.70;;;7.45;;
59193;SDS011;44967;48.598;15.650;2023-11-19T08:33:11;11.90;;;7.47;;
59193;SDS011;44967;48.598;15.650;2023-11-19T08:35:37;11.88;;;7.65;;
59193;SDS011;44967;48.598;15.650;2023-11-19T08:38:02;12.00;;;7.75;;
59193;SDS011;44967;48.598;15.650;2023-11-19T08:40:28;14.95;;;8.15;;
59193;SDS011;44967;48.598;15.650;2023-11-19T08:42:55;14.02;;;7.90;;
59193;SDS011;44967;48.598;15.650;2023-11-19T08:45:22;13.73;;;8.30;;
59193;SDS011;44967;48.598;15.650;2023-11-19T08:47:47;13.30;;;8.35;;
59193;SDS011;44967;48.598;15.650;2023-11-19T08:50:13;10.40;;;7.20;;
59193;SDS011;44967;48.598;15.650;2023-11-19T08:52:38;11.85;;;7.47;;
59193;SDS011;44967;48.598;15.650;2023-11-19T08:55:04;13.43;;;9.13;;
59193;SDS011;44967;48.598;15.650;2023-11-19T08:57:30;12.88;;;8.68;;
59193;SDS011;44967;48.598;15.650;2023-11-19T08:59:58;15.75;;;9.60;;
59193;SDS011;44967;48.598;15.650;2023-11-19T09:02:24;15.20;;;9.48;;
59193;SDS011;44967;48.598;15.650;2023-11-19T09:04:50;14.43;;;9.27;;
59193;SDS011;44967;48.598;15.650;2023-11-19T09:07:16;14.75;;;8.75;;
59193;SDS011;44967;48.598;15.650;2023-11-19T09:09:41;16.75;;;9.40;;
59193;SDS011;44967;48.598;15.650;2023-11-19T09:12:07;13.52;;;8.88;;
59193;SDS011;44967;48.598;15.650;2023-11-19T09:14:33;12.05;;;7.90;;
59193;SDS011;44967;48.598;15.650;2023-11-19T09:16:58;15.05;;;8.27;;
59193;SDS011;44967;48.598;15.650;2023-11-19T09:19:24;13.02;;;8.52;;
59193;SDS011;44967;48.598;15.650;2023-11-19T09:21:52;13.23;;;8.30;;
59193;SDS011;44967;48.598;15.650;2023-11-19T09:24:18;15.50;;;9.02;;
59193;SDS011;44967;48.598;15.650;2023-11-19T09:26:43;16.45;;;8.88;;
59193;SDS011;44967;48.598;15.650;2023-11-19T09:29:09;13.45;;;8.18;;
59193;SDS011;44967;48.598;15.650;2023-11-19T09:31:37;14.25;;;8.82;;
59193;SDS011;44967;48.598;15.650;2023-11-19T09:34:03;14.75;;;8.68;;
59193;SDS011;44967;48.598;15.650;2023-11-19T09:36:29;12.40;;;8.20;;
59193;SDS011;44967;48.598;15.650;2023-11-19T09:38:54;13.73;;;8.85;;
59193;SDS011;44967;48.598;15.650;2023-11-19T09:41:20;13.60;;;9.05;;
59193;SDS011;44967;48.598;15.650;2023-11-19T09:43:46;14.88;;;9.45;;
59193;SDS011;44967;48.598;15.650;2023-11-19T09:46:12;29.33;;;14.68;;
59193;SDS011;44967;48.598;15.650;2023-11-19T09:48:40;17.10;;;10.15;;
59193;SDS011;44967;48.598;15.650;2023-11-19T09:51:06;20.45;;;10.25;;
59193;SDS011;44967;48.598;15.650;2023-11-19T09:53:33;15.90;;;9.80;;
59193;SDS011;44967;48.598;15.650;2023-11-19T09:56:01;15.70;;;9.48;;
59193;SDS011;44967;48.598;15.650;2023-11-19T09:58:31;17.55;;;9.73;;
59193;SDS011;44967;48.598;15.650;2023-11-19T10:00:58;13.98;;;9.32;;
59193;SDS011;44967;48.598;15.650;2023-11-19T10:03:24;14.77;;;8.88;;
59193;SDS011;44967;48.598;15.650;2023-11-19T10:05:56;16.52;;;10.35;;
59193;SDS011;44967;48.598;15.650;2023-11-19T10:08:23;16.00;;;10.00;;
59193;SDS011;44967;48.598;15.650;2023-11-19T10:10:49;18.63;;;10.65;;
59193;SDS011;44967;48.598;15.650;2023-11-19T10:13:14;15.63;;;10.70;;
59193;SDS011;44967;48.598;15.650;2023-11-19T10:15:40;22.70;;;9.10;;
59193;SDS011;44967;48.598;15.650;2023-11-19T10:18:05;16.00;;;9.68;;
59193;SDS011;44967;48.598;15.650;2023-11-19T10:20:38;14.95;;;9.90;;
59193;SDS011;44967;48.598;15.650;2023-11-19T10:23:06;14.55;;;9.05;;
59193;SDS011;44967;48.598;15.650;2023-11-19T10:25:32;16.60;;;10.27;;
59193;SDS011;44967;48.598;15.650;2023-11-19T10:27:58;20.55;;;12.48;;
59193;SDS011;44967;48.598;15.650;2023-11-19T10:30:25;15.02;;;9.88;;
59193;SDS011;44967;48.598;15.650;2023-11-19T10:35:36;12.95;;;8.50;;
59193;SDS011;44967;48.598;15.650;2023-11-19T10:38:19;15.68;;;8.90;;
59193;SDS011;44967;48.598;15.650;2023-11-19T10:40:47;15.80;;;9.68;;
59193;SDS011;44967;48.598;15.650;2023-11-19T10:43:14;16.70;;;11.68;;
59193;SDS011;44967;48.598;15.650;2023-11-19T10:45:39;14.90;;;9.32;;
59193;SDS011;44967;48.598;15.650;2023-11-19T10:48:06;13.50;;;8.55;;
59193;SDS011;44967;48.598;15.650;2023-11-19T10:50:35;13.68;;;8.07;;
59193;SDS011;44967;48.598;15.650;2023-11-19T10:53:03;14.18;;;8.55;;
59193;SDS011;44967;48.598;15.650;2023-11-19T10:55:30;12.55;;;7.40;;
59193;SDS011;44967;48.598;15.650;2023-11-19T10:57:58;11.98;;;7.60;;
59193;SDS011;44967;48.598;15.650;2023-11-19T11:00:26;14.77;;;8.07;;
59193;SDS011;44967;48.598;15.650;2023-11-19T11:03:18;15.18;;;9.07;;
59193;SDS011;44967;48.598;15.650;2023-11-19T11:08:16;17.55;;;10.70;;
59193;SDS011;44967;48.598;15.650;2023-11-19T11:10:44;14.82;;;8.70;;
59193;SDS011;44967;48.598;15.650;2023-11-19T11:13:17;16.40;;;9.75;;
59193;SDS011;44967;48.598;15.650;2023-11-19T11:15:44;15.90;;;8.93;;
59193;SDS011;44967;48.598;15.650;2023-11-19T11:18:13;12.30;;;7.75;;
59193;SDS011;44967;48.598;15.650;2023-11-19T11:20:39;13.77;;;8.88;;
59193;SDS011;44967;48.598;15.650;2023-11-19T11:23:26;15.25;;;9.40;;
59193;SDS011;44967;48.598;15.650;2023-11-19T11:28:48;14.57;;;9.32;;
59193;SDS011;44967;48.598;15.650;2023-11-19T11:31:29;17.70;;;10.15;;
59193;SDS011;44967;48.598;15.650;2023-11-19T11:36:58;13.77;;;9.77;;
59193;SDS011;44967;48.598;15.650;2023-11-19T11:39:45;15.05;;;8.75;;
59193;SDS011;44967;48.598;15.650;2023-11-19T11:50:10;15.43;;;9.75;;
59193;SDS011;44967;48.598;15.650;2023-11-19T11:55:26;12.73;;;8.50;;
59193;SDS011;44967;48.598;15.650;2023-11-19T11:58:27;15.13;;;9.93;;
59193;SDS011;44967;48.598;15.650;2023-11-19T12:00:57;14.68;;;9.68;;
59193;SDS011;44967;48.598;15.650;2023-11-19T12:03:26;14.00;;;9.48;;
59193;SDS011;44967;48.598;15.650;2023-11-19T12:05:52;14.38;;;8.27;;
59193;SDS011;44967;48.598;15.650;2023-11-19T12:08:18;14.80;;;8.85;;
59193;SDS011;44967;48.598;15.650;2023-11-19T12:10:48;16.10;;;10.30;;
59193;SDS011;44967;48.598;15.650;2023-11-19T12:13:17;14.10;;;9.25;;
59193;SDS011;44967;48.598;15.650;2023-11-19T12:20:55;16.75;;;10.93;;
59193;SDS011;44967;48.598;15.650;2023-11-19T12:23:21;15.57;;;10.35;;
59193;SDS011;44967;48.598;15.650;2023-11-19T12:25:48;18.10;;;10.55;;
59193;SDS011;44967;48.598;15.650;2023-11-19T12:28:15;15.18;;;10.10;;
59193;SDS011;44967;48.598;15.650;2023-11-19T12:30:44;14.40;;;9.55;;
59193;SDS011;44967;48.598;15.650;2023-11-19T12:33:12;14.93;;;9.20;;
59193;SDS011;44967;48.598;15.650;2023-11-19T12:35:42;14.85;;;10.50;;
59193;SDS011;44967;48.598;15.650;2023-11-19T12:38:18;15.00;;;10.02;;
59193;SDS011;44967;48.598;15.650;2023-11-19T12:40:46;14.07;;;9.68;;
59193;SDS011;44967;48.598;15.650;2023-11-19T12:43:22;17.05;;;10.15;;
59193;SDS011;44967;48.598;15.650;2023-11-19T12:45:48;12.52;;;9.05;;
59193;SDS011;44967;48.598;15.650;2023-11-19T12:48:13;14.15;;;9.60;;
59193;SDS011;44967;48.598;15.650;2023-11-19T12:51:12;13.00;;;9.40;;
59193;SDS011;44967;48.598;15.650;2023-11-19T12:53:46;14.77;;;8.73;;
59193;SDS011;44967;48.598;15.650;2023-11-19T12:56:14;14.85;;;9.68;;
59193;SDS011;44967;48.598;15.650;2023-11-19T12:58:40;12.73;;;8.90;;
59193;SDS011;44967;48.598;15.650;2023-11-19T13:01:08;17.23;;;11.77;;
59193;SDS011;44967;48.598;15.650;2023-11-19T13:03:38;12.18;;;8.27;;
59193;SDS011;44967;48.598;15.650;2023-11-19T13:06:08;15.27;;;9.07;;
59193;SDS011;44967;48.598;15.650;2023-11-19T13:08:45;13.95;;;9.13;;
59193;SDS011;44967;48.598;15.650;2023-11-19T13:11:14;16.60;;;9.80;;
59193;SDS011;44967;48.598;15.650;2023-11-19T13:13:58;14.55;;;9.93;;
59193;SDS011;44967;48.598;15.650;2023-11-19T13:16:30;18.17;;;11.43;;
59193;SDS011;44967;48.598;15.650;2023-11-19T13:18:56;14.77;;;8.88;;
59193;SDS011;44967;48.598;15.650;2023-11-19T13:21:25;14.00;;;9.73;;
59193;SDS011;44967;48.598;15.650;2023-11-19T13:23:51;16.92;;;10.38;;
59193;SDS011;44967;48.598;15.650;2023-11-19T13:26:17;16.55;;;9.85;;
59193;SDS011;44967;48.598;15.650;2023-11-19T13:28:43;17.20;;;9.90;;
59193;SDS011;44967;48.598;15.650;2023-11-19T13:31:09;15.88;;;10.20;;
59193;SDS011;44967;48.598;15.650;2023-11-19T13:33:36;14.13;;;10.50;;
59193;SDS011;44967;48.598;15.650;2023-11-19T13:36:05;17.98;;;11.32;;
59193;SDS011;44967;48.598;15.650;2023-11-19T13:38:33;14.68;;;10.15;;
59193;SDS011;44967;48.598;15.650;2023-11-19T13:41:01;14.80;;;10.20;;
59193;SDS011;44967;48.598;15.650;2023-11-19T13:43:27;16.20;;;10.32;;
59193;SDS011;44967;48.598;15.650;2023-11-19T13:45:55;14.82;;;10.50;;
59193;SDS011;44967;48.598;15.650;2023-11-19T13:48:21;16.63;;;11.23;;
59193;SDS011;44967;48.598;15.650;2023-11-19T13:50:47;13.52;;;9.35;;
59193;SDS011;44967;48.598;15.650;2023-11-19T13:53:13;13.85;;;9.52;;
59193;SDS011;44967;48.598;15.650;2023-11-19T13:55:38;15.00;;;10.02;;
59193;SDS011;44967;48.598;15.650;2023-11-19T13:58:04;15.05;;;9.82;;
59193;SDS011;44967;48.598;15.650;2023-11-19T14:00:29;14.73;;;10.10;;
59193;SDS011;44967;48.598;15.650;2023-11-19T14:02:55;15.07;;;10.88;;
59193;SDS011;44967;48.598;15.650;2023-11-19T14:05:21;15.90;;;11.35;;
59193;SDS011;44967;48.598;15.650;2023-11-19T14:07:48;14.65;;;10.13;;
59193;SDS011;44967;48.598;15.650;2023-11-19T14:10:14;15.63;;;10.60;;
59193;SDS011;44967;48.598;15.650;2023-11-19T14:12:40;13.90;;;9.48;;
59193;SDS011;44967;48.598;15.650;2023-11-19T14:15:07;16.60;;;10.60;;
59193;SDS011;44967;48.598;15.650;2023-11-19T14:17:38;12.70;;;9.38;;
59193;SDS011;44967;48.598;15.650;2023-11-19T14:20:04;16.02;;;9.93;;
59193;SDS011;44967;48.598;15.650;2023-11-19T14:22:44;12.98;;;8.98;;
59193;SDS011;44967;48.598;15.650;2023-11-19T14:25:13;15.68;;;9.65;;
59193;SDS011;44967;48.598;15.650;2023-11-19T14:27:42;17.45;;;10.38;;
59193;SDS011;44967;48.598;15.650;2023-11-19T14:30:10;16.33;;;10.82;;
59193;SDS011;44967;48.598;15.650;2023-11-19T14:32:39;12.38;;;9.15;;
59193;SDS011;44967;48.598;15.650;2023-11-19T14:35:05;15.38;;;10.38;;
59193;SDS011;44967;48.598;15.650;2023-11-19T14:37:32;17.88;;;12.00;;
59193;SDS011;44967;48.598;15.650;2023-11-19T14:39:58;16.25;;;11.10;;
59193;SDS011;44967;48.598;15.650;2023-11-19T14:42:25;15.77;;;10.35;;
59193;SDS011;44967;48.598;15.650;2023-11-19T14:44:51;16.33;;;11.30;;
59193;SDS011;44967;48.598;15.650;2023-11-19T14:47:19;16.52;;;11.52;;
59193;SDS011;44967;48.598;15.650;2023-11-19T14:49:45;16.45;;;11.18;;